Time;durP1;ratioP1;P1;durP2;ratioP2;P2;SDS_P1;SDS_P2;PMS_P1;PMS_P2;Temp;Humidity;BMP_temperature;BMP_pressure;BME280_temperature;BME280_humidity;BME280_pressure;Samples;Min_cycle;Max_cycle;Signal;HPM_P1;HPM_P2
2021/10/14 00:00:44;;;;;;;;;;;;;;;;;;4995856;28;19918;-77
2021/10/14 00:03:09;;;;;;;;;;;;;;;;;;4995657;28;19969;-78
2021/10/14 00:05:35;;;;;;;;;;;;;;;;;;4995629;28;19918;-78
2021/10/14 00:08:00;;;;;;;;;;;;;;;;;;4995764;28;19925;-79
2021/10/14 00:10:27;;;;;;;;;;;;;;;;;;4995652;28;19972;-78
2021/10/14 00:12:52;;;;;;;;;;;;;;;;;;4978026;28;20374;-78
2021/10/14 00:15:17;;;;;;;;;;;;;;;;;;4978049;28;19921;-77
2021/10/14 00:17:43;;;;;;;;;;;;;;;;;;4995379;28;19963;-77
2021/10/14 00:20:09;;;;;;;;;;;;;;;;;;4995433;28;19918;-77
2021/10/14 00:22:34;;;;;;;;;;;;;;;;;;4995318;28;19953;-78
2021/10/14 00:25:00;;;;;;;;;;;;;;;;;;4995308;28;20366;-78
2021/10/14 00:27:25;;;;;;;;;;;;;;;;;;4995295;28;19921;-77
2021/10/14 00:29:50;;;;;;;;;;;;;;;;;;4995038;28;19922;-79
2021/10/14 00:32:16;;;;;;;;;;;;;;;;;;4995234;28;20436;-79
2021/10/14 00:34:41;;;;;;;;;;;;;;;;;;4995173;28;19920;-79
2021/10/14 00:37:07;;;;;;;;;;;;;;;;;;4995091;28;19918;-79
2021/10/14 00:39:32;;;;;;;;;;;;;;;;;;4995128;28;19972;-79
2021/10/14 00:41:57;;;;;;;;;;;;;;;;;;4995046;28;20012;-80
2021/10/14 00:44:23;;;;;;;;;;;;;;;;;;4994842;28;19925;-78
2021/10/14 00:46:50;;;;;;;;;;;;;;;;;;4977520;28;19918;-80
2021/10/14 00:49:15;;;;;;;;;;;;;;;;;;4994856;28;19917;-80
2021/10/14 00:51:40;;;;;;;;;;;;;;;;;;4994975;28;19928;-79
2021/10/14 00:54:06;;;;;;;;;;;;;;;;;;4994853;28;20329;-79
2021/10/14 00:56:31;;;;;;;;;;;;;;;;;;4994801;28;20373;-78
2021/10/14 00:58:57;;;;;;;;;;;;;;;;;;4994879;28;19951;-78
2021/10/14 01:01:23;;;;;;;;;;;;;;;;;;4994790;28;19996;-79
2021/10/14 01:03:48;;;;;;;;;;;;;;;;;;4993889;28;20451;-78
2021/10/14 01:06:13;;;;;;;;;;;;;;;;;;4994889;28;19961;-78
2021/10/14 01:08:39;;;;;;;;;;;;;;;;;;4994763;28;20008;-78
2021/10/14 01:11:05;;;;;;;;;;;;;;;;;;4994599;28;20275;-79
2021/10/14 01:13:30;;;;;;;;;;;;;;;;;;4994644;28;19918;-79
2021/10/14 01:15:55;;;;;;;;;;;;;;;;;;4994579;28;19972;-80
2021/10/14 01:18:21;;;;;;;;;;;;;;;;;;4994500;28;20465;-78
2021/10/14 01:20:46;;;;;;;;;;;;;;;;;;4994553;28;20290;-79
2021/10/14 01:23:12;;;;;;;;;;;;;;;;;;4994729;28;19976;-79
2021/10/14 01:25:38;;;;;;;;;;;;;;;;;;4976990;28;19918;-78
2021/10/14 01:28:03;;;;;;;;;;;;;;;;;;4994516;28;19918;-78
2021/10/14 01:30:29;;;;;;;;;;;;;;;;;;4994428;28;19918;-78
2021/10/14 01:32:54;;;;;;;;;;;;;;;;;;4994412;28;19917;-78
2021/10/14 01:35:20;;;;;;;;;;;;;;;;;;4976948;28;19918;-78
2021/10/14 01:37:46;;;;;;;;;;;;;;;;;;4994320;28;20432;-78
2021/10/14 01:40:12;;;;;;;;;;;;;;;;;;4994416;28;19922;-78
2021/10/14 01:42:37;;;;;;;;;;;;;;;;;;4994532;28;19918;-78
2021/10/14 01:45:03;;;;;;;;;;;;;;;;;;4994308;28;19956;-81
2021/10/14 01:47:29;;;;;;;;;;;;;;;;;;4994210;28;20012;-78
2021/10/14 01:49:54;;;;;;;;;;;;;;;;;;4976703;28;19918;-78
2021/10/14 01:52:20;;;;;;;;;;;;;;;;;;4994274;28;20008;-78
2021/10/14 01:54:45;;;;;;;;;;;;;;;;;;4994356;28;19941;-78
2021/10/14 01:57:11;;;;;;;;;;;;;;;;;;4994040;28;20309;-79
2021/10/14 01:59:36;;;;;;;;;;;;;;;;;;4994061;28;20009;-78
2021/10/14 02:02:02;;;;;;;;;;;;;;;;;;4994074;28;19972;-78
2021/10/14 02:04:27;;;;;;;;;;;;;;;;;;4976670;28;20386;-79
2021/10/14 02:06:53;;;;;;;;;;;;;;;;;;4994082;28;19917;-78
2021/10/14 02:09:18;;;;;;;;;;;;;;;;;;4993992;28;20460;-78
2021/10/14 02:11:43;;;;;;;;;;;;;;;;;;4994023;28;19933;-79
2021/10/14 02:14:09;;;;;;;;;;;;;;;;;;4994106;28;19918;-78
2021/10/14 02:16:34;;;;;;;;;;;;;;;;;;4997191;28;20378;-78
2021/10/14 02:19:00;;;;;;;;;;;;;;;;;;4997674;28;20282;-78
2021/10/14 02:21:25;;;;;;;;;;;;;;;;;;4997742;28;20382;-78
2021/10/14 02:23:51;;;;;;;;;;;;;;;;;;4997557;28;19928;-78
2021/10/14 02:26:16;;;;;;;;;;;;;;;;;;4997479;28;20370;-78
2021/10/14 02:28:41;;;;;;;;;;;;;;;;;;4997391;28;19917;-78
2021/10/14 02:31:07;;;;;;;;;;;;;;;;;;4997351;28;19922;-79
2021/10/14 02:33:32;;;;;;;;;;;;;;;;;;4997398;28;20435;-78
2021/10/14 02:35:58;;;;;;;;;;;;;;;;;;4997343;28;20374;-78
2021/10/14 02:38:23;;;;;;;;;;;;;;;;;;4997527;28;20408;-78
2021/10/14 02:40:49;;;;;;;;;;;;;;;;;;4997309;28;19957;-78
2021/10/14 02:43:15;;;;;;;;;;;;;;;;;;4997269;28;19947;-78
2021/10/14 02:45:40;;;;;;;;;;;;;;;;;;4997402;28;19961;-78
2021/10/14 02:48:06;;;;;;;;;;;;;;;;;;4997110;28;19918;-79
2021/10/14 02:50:31;;;;;;;;;;;;;;;;;;4993114;28;19922;-79
2021/10/14 02:52:56;;;;;;;;;;;;;;;;;;4977943;28;20333;-78
2021/10/14 02:55:22;;;;;;;;;;;;;;;;;;4977594;28;19957;-78
2021/10/14 02:57:47;;;;;;;;;;;;;;;;;;4977584;28;19969;-78
2021/10/14 03:00:13;;;;;;;;;;;;;;;;;;4977319;28;19918;-78
2021/10/14 03:02:38;;;;;;;;;;;;;;;;;;4981473;28;19921;-78
2021/10/14 03:05:04;;;;;;;;;;;;;;;;;;4977407;28;20355;-78
2021/10/14 03:07:29;;;;;;;;;;;;;;;;;;4977370;28;19918;-78
2021/10/14 03:09:55;;;;;;;;;;;;;;;;;;4978154;28;19924;-78
2021/10/14 03:12:20;;;;;;;;;;;;;;;;;;4996816;28;19953;-78
2021/10/14 03:14:46;;;;;;;;;;;;;;;;;;4985337;28;19968;-78
2021/10/14 03:17:11;;;;;;;;;;;;;;;;;;4977952;28;19929;-78
2021/10/14 03:19:37;;;;;;;;;;;;;;;;;;4978708;28;19965;-77
2021/10/14 03:22:03;;;;;;;;;;;;;;;;;;4985365;28;19941;-77
2021/10/14 03:24:29;;;;;;;;;;;;;;;;;;4996978;28;19917;-77
2021/10/14 03:26:54;;;;;;;;;;;;;;;;;;4965448;28;19922;-79
2021/10/14 03:29:20;;;;;;;;;;;;;;;;;;4957277;29;19954;-78
2021/10/14 03:31:45;;;;;;;;;;;;;;;;;;4956768;29;19918;-78
2021/10/14 03:34:10;;;;;;;;;;;;;;;;;;4957896;29;20479;-78
2021/10/14 03:36:36;;;;;;;;;;;;;;;;;;4957688;29;19957;-78
2021/10/14 03:39:02;;;;;;;;;;;;;;;;;;4957576;29;19970;-78
2021/10/14 03:41:27;;;;;;;;;;;;;;;;;;4940307;29;19941;-79
2021/10/14 03:43:52;;;;;;;;;;;;;;;;;;4957339;29;19918;-79
2021/10/14 03:46:18;;;;;;;;;;;;;;;;;;4957248;29;19967;-80
2021/10/14 03:48:43;;;;;;;;;;;;;;;;;;4957354;29;19966;-79
2021/10/14 03:51:09;;;;;;;;;;;;;;;;;;4939952;29;19918;-79
2021/10/14 03:53:34;;;;;;;;;;;;;;;;;;4940024;29;20375;-79
2021/10/14 03:55:59;;;;;;;;;;;;;;;;;;4957717;29;20279;-78
2021/10/14 03:58:25;;;;;;;;;;;;;;;;;;4957314;29;19918;-78
2021/10/14 04:00:50;;;;;;;;;;;;;;;;;;4964393;28;20147;-79
2021/10/14 04:03:16;;;;;;;;;;;;;;;;;;4980108;28;19969;-78
2021/10/14 04:05:42;;;;;;;;;;;;;;;;;;4975841;28;19922;-78
2021/10/14 04:08:07;;;;;;;;;;;;;;;;;;4977819;28;19988;-78
2021/10/14 04:10:32;;;;;;;;;;;;;;;;;;4976131;28;19925;-78
2021/10/14 04:12:58;;;;;;;;;;;;;;;;;;4979362;28;19929;-80
2021/10/14 04:15:23;;;;;;;;;;;;;;;;;;4974858;28;19922;-77
2021/10/14 04:17:49;;;;;;;;;;;;;;;;;;4984759;28;19918;-78
2021/10/14 04:20:14;;;;;;;;;;;;;;;;;;4958889;28;19919;-78
2021/10/14 04:22:39;;;;;;;;;;;;;;;;;;4974767;28;19922;-78
2021/10/14 04:25:05;;;;;;;;;;;;;;;;;;4974108;28;19918;-78
2021/10/14 04:27:31;;;;;;;;;;;;;;;;;;4974140;28;19922;-78
2021/10/14 04:29:56;;;;;;;;;;;;;;;;;;4957206;28;19972;-78
2021/10/14 04:32:22;;;;;;;;;;;;;;;;;;4974325;28;19918;-77
2021/10/14 04:34:47;;;;;;;;;;;;;;;;;;4974828;28;19918;-77
2021/10/14 04:37:13;;;;;;;;;;;;;;;;;;4975038;28;19997;-77
2021/10/14 04:39:38;;;;;;;;;;;;;;;;;;4975627;28;19915;-78
2021/10/14 04:42:05;;;;;;;;;;;;;;;;;;4975721;28;19925;-78
2021/10/14 04:44:30;;;;;;;;;;;;;;;;;;4975750;28;20362;-77
2021/10/14 04:46:56;;;;;;;;;;;;;;;;;;4975865;28;19957;-78
2021/10/14 04:49:21;;;;;;;;;;;;;;;;;;4975551;28;19965;-78
2021/10/14 04:51:46;;;;;;;;;;;;;;;;;;4958605;28;19918;-77
2021/10/14 04:54:12;;;;;;;;;;;;;;;;;;4975412;28;19922;-78
2021/10/14 04:56:37;;;;;;;;;;;;;;;;;;4975549;28;20008;-78
2021/10/14 04:59:03;;;;;;;;;;;;;;;;;;4975432;28;19941;-78
2021/10/14 05:01:28;;;;;;;;;;;;;;;;;;4975503;28;19918;-77
2021/10/14 05:03:54;;;;;;;;;;;;;;;;;;4975263;28;19926;-78
2021/10/14 05:06:19;;;;;;;;;;;;;;;;;;4975319;28;19918;-77
2021/10/14 05:08:44;;;;;;;;;;;;;;;;;;4975335;28;20290;-81
2021/10/14 05:11:13;;;;;;;;;;;;;;;;;;4957829;28;19918;-79
2021/10/14 05:13:39;;;;;;;;;;;;;;;;;;4975481;28;19918;-78
2021/10/14 05:16:05;;;;;;;;;;;;;;;;;;4975254;28;19925;-76
2021/10/14 05:18:30;;;;;;;;;;;;;;;;;;4975434;28;19918;-77
2021/10/14 05:20:56;;;;;;;;;;;;;;;;;;4975251;28;19918;-77
2021/10/14 05:23:21;;;;;;;;;;;;;;;;;;4975161;28;20287;-78
2021/10/14 05:25:47;;;;;;;;;;;;;;;;;;4975003;28;19918;-76
2021/10/14 05:28:12;;;;;;;;;;;;;;;;;;4975212;28;19921;-77
2021/10/14 05:30:37;;;;;;;;;;;;;;;;;;4975047;28;19918;-77
2021/10/14 05:33:03;;;;;;;;;;;;;;;;;;4957998;28;20016;-77
2021/10/14 05:35:28;;;;;;;;;;;;;;;;;;4974989;28;19918;-78
2021/10/14 05:47:02;;;;;;;;;;;;;;;;;;4974847;28;19925;-78
2021/10/14 05:49:28;;;;;;;;;;;;;;;;;;4957532;28;19921;-78
2021/10/14 05:51:53;;;;;;;;;;;;;;;;;;4978991;28;19918;-77
2021/10/14 05:54:19;;;;;;;;;;;;;;;;;;4978784;28;19922;-77
2021/10/14 05:56:44;;;;;;;;;;;;;;;;;;4978861;28;20438;-80
2021/10/14 05:59:09;;;;;;;;;;;;;;;;;;4961297;28;20378;-78
2021/10/14 06:01:35;;;;;;;;;;;;;;;;;;4978582;28;20375;-78
2021/10/14 06:04:00;;;;;;;;;;;;;;;;;;4978437;28;19922;-77
2021/10/14 06:06:26;;;;;;;;;;;;;;;;;;4978325;28;19925;-79
2021/10/14 06:08:51;;;;;;;;;;;;;;;;;;4978556;28;19930;-79
2021/10/14 06:11:17;;;;;;;;;;;;;;;;;;4978366;28;19918;-80
2021/10/14 06:13:42;;;;;;;;;;;;;;;;;;4978367;28;19926;-77
2021/10/14 06:16:07;;;;;;;;;;;;;;;;;;4978327;28;19918;-76
2021/10/14 06:18:33;;;;;;;;;;;;;;;;;;4978232;28;19946;-76
2021/10/14 06:20:59;;;;;;;;;;;;;;;;;;4978100;28;20004;-76
2021/10/14 06:23:24;;;;;;;;;;;;;;;;;;4978196;28;19918;-75
2021/10/14 06:25:50;;;;;;;;;;;;;;;;;;4978141;28;20365;-76
2021/10/14 06:28:15;;;;;;;;;;;;;;;;;;4978111;28;20062;-77
2021/10/14 06:30:40;;;;;;;;;;;;;;;;;;4978011;28;20420;-78
2021/10/14 06:33:06;;;;;;;;;;;;;;;;;;4978014;28;19919;-77
2021/10/14 06:35:31;;;;;;;;;;;;;;;;;;4977982;28;19925;-77
2021/10/14 06:37:58;;;;;;;;;;;;;;;;;;4977778;28;19964;-77
2021/10/14 06:40:24;;;;;;;;;;;;;;;;;;4978178;28;19964;-77
2021/10/14 06:42:49;;;;;;;;;;;;;;;;;;4977894;28;19918;-77
2021/10/14 06:45:14;;;;;;;;;;;;;;;;;;4977826;28;19965;-76
2021/10/14 06:47:40;;;;;;;;;;;;;;;;;;4977752;28;19925;-76
2021/10/14 06:50:06;;;;;;;;;;;;;;;;;;4977839;28;19918;-78
2021/10/14 06:52:32;;;;;;;;;;;;;;;;;;4977698;28;19922;-77
2021/10/14 06:54:57;;;;;;;;;;;;;;;;;;4977637;28;19921;-77
2021/10/14 06:57:23;;;;;;;;;;;;;;;;;;4977706;28;19964;-76
2021/10/14 06:59:49;;;;;;;;;;;;;;;;;;4979459;28;19918;-76
2021/10/14 07:02:14;;;;;;;;;;;;;;;;;;4980927;28;19929;-77
2021/10/14 07:04:39;;;;;;;;;;;;;;;;;;4978358;28;19981;-77
2021/10/14 07:07:05;;;;;;;;;;;;;;;;;;4977955;28;19914;-75
2021/10/14 07:09:30;;;;;;;;;;;;;;;;;;4977482;28;20036;-78
2021/10/14 07:11:59;;;;;;;;;;;;;;;;;;4977393;28;19953;-78
2021/10/14 07:14:24;;;;;;;;;;;;;;;;;;4977347;28;20012;-78
2021/10/14 07:16:50;;;;;;;;;;;;;;;;;;4977410;28;19957;-78
2021/10/14 07:19:16;;;;;;;;;;;;;;;;;;4959779;28;19914;-77
2021/10/14 07:21:41;;;;;;;;;;;;;;;;;;4977093;28;19941;-77
2021/10/14 07:24:06;;;;;;;;;;;;;;;;;;4976895;28;20060;-77
2021/10/14 07:26:32;;;;;;;;;;;;;;;;;;4977164;28;19960;-77
2021/10/14 07:28:57;;;;;;;;;;;;;;;;;;4976990;28;20008;-78
2021/10/14 07:31:23;;;;;;;;;;;;;;;;;;4976975;28;19919;-78
2021/10/14 07:33:49;;;;;;;;;;;;;;;;;;4976876;28;19918;-77
2021/10/14 07:36:14;;;;;;;;;;;;;;;;;;4976961;28;20045;-79
2021/10/14 07:38:40;;;;;;;;;;;;;;;;;;4976821;28;19925;-78
2021/10/14 07:41:05;;;;;;;;;;;;;;;;;;4976737;28;19997;-78
2021/10/14 07:43:31;;;;;;;;;;;;;;;;;;4959415;28;19922;-77
2021/10/14 07:45:56;;;;;;;;;;;;;;;;;;4959583;28;19919;-79
2021/10/14 07:48:22;;;;;;;;;;;;;;;;;;4976665;28;19925;-80
2021/10/14 07:50:47;;;;;;;;;;;;;;;;;;4976517;28;19962;-79
2021/10/14 07:53:13;;;;;;;;;;;;;;;;;;4976543;28;20421;-77
2021/10/14 07:55:38;;;;;;;;;;;;;;;;;;4976469;28;19925;-79
2021/10/14 07:58:03;;;;;;;;;;;;;;;;;;4959136;28;19972;-78
2021/10/14 08:00:29;;;;;;;;;;;;;;;;;;4976309;28;19919;-80
2021/10/14 08:02:54;;;;;;;;;;;;;;;;;;4976324;28;19922;-79
2021/10/14 08:05:20;;;;;;;;;;;;;;;;;;4976378;28;19925;-78
2021/10/14 08:07:46;;;;;;;;;;;;;;;;;;4959063;28;20276;-79
2021/10/14 08:10:11;;;;;;;;;;;;;;;;;;4976130;28;19926;-80
2021/10/14 08:12:36;;;;;;;;;;;;;;;;;;4975878;28;19919;-79
2021/10/14 08:15:02;;;;;;;;;;;;;;;;;;4976162;28;20264;-79
2021/10/14 08:17:28;;;;;;;;;;;;;;;;;;4976114;28;19914;-79
2021/10/14 08:19:53;;;;;;;;;;;;;;;;;;4976058;28;19965;-79
2021/10/14 08:22:19;;;;;;;;;;;;;;;;;;4976025;28;20013;-79
2021/10/14 08:24:46;;;;;;;;;;;;;;;;;;4975925;28;20370;-79
2021/10/14 08:27:11;;;;;;;;;;;;;;;;;;4976080;28;19925;-79
2021/10/14 08:29:37;;;;;;;;;;;;;;;;;;4976480;28;19922;-80
2021/10/14 08:32:03;;;;;;;;;;;;;;;;;;4975978;28;20007;-79
2021/10/14 08:34:29;;;;;;;;;;;;;;;;;;4975819;28;19914;-80
2021/10/14 08:36:54;;;;;;;;;;;;;;;;;;4975727;28;19926;-79
2021/10/14 08:39:19;;;;;;;;;;;;;;;;;;4975718;28;20390;-79
2021/10/14 08:41:46;;;;;;;;;;;;;;;;;;4975712;28;19914;-78
2021/10/14 08:44:13;;;;;;;;;;;;;;;;;;4974921;28;20041;-79
2021/10/14 08:46:41;;;;;;;;;;;;;;;;;;4959263;28;20297;-78
2021/10/14 08:49:08;;;;;;;;;;;;;;;;;;4956352;29;19914;-78
2021/10/14 08:51:35;;;;;;;;;;;;;;;;;;4955386;29;20209;-77
2021/10/14 08:54:01;;;;;;;;;;;;;;;;;;4956271;29;19926;-78
2021/10/14 08:56:28;;;;;;;;;;;;;;;;;;4956186;29;20289;-81
2021/10/14 08:58:54;;;;;;;;;;;;;;;;;;4956150;29;19918;-78
2021/10/14 09:01:19;;;;;;;;;;;;;;;;;;4955948;29;20012;-78
2021/10/14 09:03:51;;;;;;;;;;;;;;;;;;4955913;29;20016;-79
2021/10/14 09:06:17;;;;;;;;;;;;;;;;;;4955955;29;19923;-79
2021/10/14 09:08:44;;;;;;;;;;;;;;;;;;4956002;29;20327;-78
2021/10/14 09:11:14;;;;;;;;;;;;;;;;;;4955877;29;19918;-79
2021/10/14 09:13:56;;;;;;;;;;;;;;;;;;4955969;29;20434;-78
2021/10/14 09:16:35;;;;;;;;;;;;;;;;;;4955901;29;19954;-78
2021/10/14 09:19:14;;;;;;;;;;;;;;;;;;4956008;29;20009;-79
2021/10/14 09:21:40;;;;;;;;;;;;;;;;;;4955829;29;20369;-79
2021/10/14 09:24:42;;;;;;;;;;;;;;;;;;4955449;28;19918;-78
2021/10/14 09:27:08;;;;;;;;;;;;;;;;;;4878065;29;19936;-78
2021/10/14 09:29:37;;;;;;;;;;;;;;;;;;4878336;29;20014;-80
2021/10/14 09:32:04;;;;;;;;;;;;;;;;;;4878259;29;20340;-80
2021/10/14 09:34:34;;;;;;;;;;;;;;;;;;4878068;29;20440;-76
2021/10/14 09:37:01;;;;;;;;;;;;;;;;;;4877999;29;19927;-79
2021/10/14 09:39:27;;;;;;;;;;;;;;;;;;4878041;29;20029;-79
2021/10/14 09:41:53;;;;;;;;;;;;;;;;;;4878167;29;19919;-79
2021/10/14 09:44:19;;;;;;;;;;;;;;;;;;4878093;29;19930;-79
2021/10/14 09:46:46;;;;;;;;;;;;;;;;;;4878111;29;19964;-79
2021/10/14 09:49:14;;;;;;;;;;;;;;;;;;4878024;29;19930;-80
2021/10/14 09:51:41;;;;;;;;;;;;;;;;;;4862274;29;19919;-79
2021/10/14 09:54:07;;;;;;;;;;;;;;;;;;4877901;29;19974;-79
2021/10/14 09:56:33;;;;;;;;;;;;;;;;;;4877919;29;19959;-79
2021/10/14 09:59:01;;;;;;;;;;;;;;;;;;4862287;29;19927;-79
2021/10/14 10:01:27;;;;;;;;;;;;;;;;;;4928771;29;20017;-78
2021/10/14 10:03:53;;;;;;;;;;;;;;;;;;4955340;29;19926;-78
2021/10/14 10:06:22;;;;;;;;;;;;;;;;;;4955612;29;20004;-80
2021/10/14 10:08:49;;;;;;;;;;;;;;;;;;4955392;29;20510;-79
2021/10/14 10:11:16;;;;;;;;;;;;;;;;;;4955370;29;19925;-78
2021/10/14 10:13:45;;;;;;;;;;;;;;;;;;4955455;29;19923;-79
2021/10/14 10:16:17;;;;;;;;;;;;;;;;;;4955430;29;19918;-80
2021/10/14 10:18:44;;;;;;;;;;;;;;;;;;4938486;29;20278;-79
2021/10/14 10:21:30;;;;;;;;;;;;;;;;;;4955171;29;19925;-83
2021/10/14 10:23:59;;;;;;;;;;;;;;;;;;4955400;29;20009;-80
2021/10/14 10:26:34;;;;;;;;;;;;;;;;;;4938135;29;20314;-80
2021/10/14 10:29:00;;;;;;;;;;;;;;;;;;4955443;29;19918;-80
2021/10/14 10:31:44;;;;;;;;;;;;;;;;;;4955248;29;19919;-80
2021/10/14 10:34:09;;;;;;;;;;;;;;;;;;4957542;29;19918;-80
2021/10/14 10:36:46;;;;;;;;;;;;;;;;;;4959740;28;19918;-81
2021/10/14 10:39:30;;;;;;;;;;;;;;;;;;4976197;29;19960;-81
2021/10/14 10:42:12;;;;;;;;;;;;;;;;;;4963673;29;20334;-80
2021/10/14 10:44:41;;;;;;;;;;;;;;;;;;4959065;29;19941;-82
2021/10/14 10:47:26;;;;;;;;;;;;;;;;;;4958738;29;20346;-80
2021/10/14 10:49:54;;;;;;;;;;;;;;;;;;4958461;29;19929;-79
2021/10/14 10:52:32;;;;;;;;;;;;;;;;;;4958448;29;19965;-79
2021/10/14 10:55:01;;;;;;;;;;;;;;;;;;4958338;29;19965;-79
2021/10/14 10:57:48;;;;;;;;;;;;;;;;;;4958383;29;19922;-80
2021/10/14 11:00:15;;;;;;;;;;;;;;;;;;4958306;29;20346;-80
2021/10/14 11:02:40;;;;;;;;;;;;;;;;;;4958004;29;19993;-79
2021/10/14 11:05:06;;;;;;;;;;;;;;;;;;4958180;29;19918;-79
2021/10/14 11:07:31;;;;;;;;;;;;;;;;;;4958266;29;20371;-79
2021/10/14 11:09:57;;;;;;;;;;;;;;;;;;4958068;29;20002;-81
2021/10/14 11:12:22;;;;;;;;;;;;;;;;;;4940837;29;20053;-78
2021/10/14 11:14:49;;;;;;;;;;;;;;;;;;4957963;29;20045;-78
2021/10/14 11:17:16;;;;;;;;;;;;;;;;;;4957960;29;19919;-79
2021/10/14 11:19:41;;;;;;;;;;;;;;;;;;4957890;29;19925;-79
2021/10/14 11:22:14;;;;;;;;;;;;;;;;;;4958015;29;20013;-82
2021/10/14 11:24:45;;;;;;;;;;;;;;;;;;4957806;29;19918;-78
2021/10/14 11:27:14;;;;;;;;;;;;;;;;;;4957827;29;19919;-78
2021/10/14 11:29:39;;;;;;;;;;;;;;;;;;4957944;29;20005;-79
2021/10/14 11:32:07;;;;;;;;;;;;;;;;;;4957607;29;20347;-78
2021/10/14 11:34:34;;;;;;;;;;;;;;;;;;4957749;29;19969;-79
2021/10/14 11:37:01;;;;;;;;;;;;;;;;;;4957623;29;19926;-78
2021/10/14 11:39:37;;;;;;;;;;;;;;;;;;4957518;29;19918;-79
2021/10/14 11:42:10;;;;;;;;;;;;;;;;;;4957500;29;19925;-78
2021/10/14 11:44:37;;;;;;;;;;;;;;;;;;4957502;29;19918;-78
2021/10/14 11:47:05;;;;;;;;;;;;;;;;;;4956625;28;19922;-78
2021/10/14 11:49:31;;;;;;;;;;;;;;;;;;4961806;28;20017;-79
2021/10/14 11:52:03;;;;;;;;;;;;;;;;;;4975947;28;20012;-78
2021/10/14 11:54:30;;;;;;;;;;;;;;;;;;4976449;28;19925;-78
2021/10/14 11:56:55;;;;;;;;;;;;;;;;;;4976497;28;19918;-77
2021/10/14 11:59:22;;;;;;;;;;;;;;;;;;4958977;28;19925;-81
2021/10/14 12:01:54;;;;;;;;;;;;;;;;;;4976899;28;20363;-79
2021/10/14 12:04:22;;;;;;;;;;;;;;;;;;4976447;28;19919;-78
2021/10/14 12:06:48;;;;;;;;;;;;;;;;;;4976509;28;19918;-78
2021/10/14 12:09:15;;;;;;;;;;;;;;;;;;4979463;28;20400;-78
2021/10/14 12:11:40;;;;;;;;;;;;;;;;;;4982854;28;19922;-77
2021/10/14 12:14:06;;;;;;;;;;;;;;;;;;4989304;28;19926;-78
2021/10/14 12:16:32;;;;;;;;;;;;;;;;;;4985279;28;19953;-78
2021/10/14 12:19:10;;;;;;;;;;;;;;;;;;4981450;28;19925;-81
2021/10/14 12:21:36;;;;;;;;;;;;;;;;;;4958599;28;19929;-78
2021/10/14 12:24:10;;;;;;;;;;;;;;;;;;4965926;28;19929;-78
2021/10/14 12:26:40;;;;;;;;;;;;;;;;;;4975767;28;19923;-78
2021/10/14 12:29:25;;;;;;;;;;;;;;;;;;4980924;28;20289;-86
2021/10/14 12:32:08;;;;;;;;;;;;;;;;;;4975304;28;19964;-81
2021/10/14 12:34:46;;;;;;;;;;;;;;;;;;4975919;28;19919;-85
2021/10/14 12:37:13;;;;;;;;;;;;;;;;;;4975802;28;20396;-81
2021/10/14 12:39:39;;;;;;;;;;;;;;;;;;4975994;28;19918;-78
2021/10/14 12:42:05;;;;;;;;;;;;;;;;;;4975625;28;19965;-78
2021/10/14 12:44:48;;;;;;;;;;;;;;;;;;4966213;28;19923;-78
2021/10/14 12:47:48;;;;;;;;;;;;;;;;;;4956629;29;20338;-77
2021/10/14 12:52:43;;;;;;;;;;;;;;;;;;4977819;28;19930;-79
2021/10/14 12:55:09;;;;;;;;;;;;;;;;;;4980502;28;19918;-78
2021/10/14 12:57:34;;;;;;;;;;;;;;;;;;4980379;28;20274;-78
2021/10/14 13:00:00;;;;;;;;;;;;;;;;;;4975539;28;19924;-77
2021/10/14 13:02:25;;;;;;;;;;;;;;;;;;4952025;29;19985;-84
2021/10/14 13:04:51;;;;;;;;;;;;;;;;;;4956588;29;19977;-77
2021/10/14 13:07:16;;;;;;;;;;;;;;;;;;4957087;29;19925;-80
2021/10/14 13:09:42;;;;;;;;;;;;;;;;;;4956163;29;19969;-77
2021/10/14 13:12:10;;;;;;;;;;;;;;;;;;4955938;29;20383;-79
2021/10/14 13:14:38;;;;;;;;;;;;;;;;;;4955080;29;19933;-84
2021/10/14 13:17:04;;;;;;;;;;;;;;;;;;4944980;28;19931;-79
2021/10/14 13:19:30;;;;;;;;;;;;;;;;;;4954875;29;19981;-78
2021/10/14 13:21:55;;;;;;;;;;;;;;;;;;4955031;29;20396;-78
2021/10/14 13:24:21;;;;;;;;;;;;;;;;;;4954906;29;19942;-78
2021/10/14 13:26:46;;;;;;;;;;;;;;;;;;4955801;29;19926;-78
2021/10/14 13:29:12;;;;;;;;;;;;;;;;;;4955666;29;19922;-79
2021/10/14 13:31:37;;;;;;;;;;;;;;;;;;4961397;28;19924;-79
2021/10/14 13:34:03;;;;;;;;;;;;;;;;;;4957258;28;19923;-81
2021/10/14 13:36:29;;;;;;;;;;;;;;;;;;4936696;29;19915;-79
2021/10/14 13:38:56;;;;;;;;;;;;;;;;;;4936634;29;19919;-80
2021/10/14 13:41:23;;;;;;;;;;;;;;;;;;4936719;29;19974;-81
2021/10/14 13:43:55;;;;;;;;;;;;;;;;;;4919814;29;20287;-80
2021/10/14 13:46:21;;;;;;;;;;;;;;;;;;4936494;29;19919;-78
2021/10/14 13:48:46;;;;;;;;;;;;;;;;;;4936779;29;19915;-83
2021/10/14 13:51:12;;;;;;;;;;;;;;;;;;4936514;29;20021;-79
2021/10/14 13:53:37;;;;;;;;;;;;;;;;;;4936348;29;20324;-80
2021/10/14 13:56:03;;;;;;;;;;;;;;;;;;4936358;29;20327;-80
2021/10/14 13:58:28;;;;;;;;;;;;;;;;;;4936369;29;19919;-83
2021/10/14 14:00:54;;;;;;;;;;;;;;;;;;4936327;29;19974;-76
2021/10/14 14:03:19;;;;;;;;;;;;;;;;;;4948982;29;19969;-82
2021/10/14 14:05:46;;;;;;;;;;;;;;;;;;4955347;29;19918;-77
2021/10/14 14:08:12;;;;;;;;;;;;;;;;;;4955408;29;19926;-77
2021/10/14 14:10:38;;;;;;;;;;;;;;;;;;4955933;28;19957;-80
2021/10/14 14:13:04;;;;;;;;;;;;;;;;;;4963714;29;19919;-80
2021/10/14 14:15:34;;;;;;;;;;;;;;;;;;4976322;29;19950;-83
2021/10/14 14:18:00;;;;;;;;;;;;;;;;;;4961518;29;19925;-80
2021/10/14 14:20:26;;;;;;;;;;;;;;;;;;4959462;29;19974;-79
2021/10/14 14:22:51;;;;;;;;;;;;;;;;;;4959233;29;20363;-81
2021/10/14 14:25:17;;;;;;;;;;;;;;;;;;4941722;29;19919;-79
2021/10/14 14:27:42;;;;;;;;;;;;;;;;;;4958848;29;19918;-79
2021/10/14 14:30:08;;;;;;;;;;;;;;;;;;4959062;29;19942;-81
2021/10/14 14:32:34;;;;;;;;;;;;;;;;;;4958811;29;20303;-78
2021/10/14 14:35:00;;;;;;;;;;;;;;;;;;4958572;29;19958;-79
2021/10/14 14:37:25;;;;;;;;;;;;;;;;;;4958653;29;20393;-80
2021/10/14 14:39:51;;;;;;;;;;;;;;;;;;4958446;29;19918;-78
2021/10/14 14:42:16;;;;;;;;;;;;;;;;;;4941430;29;19918;-78
2021/10/14 14:44:42;;;;;;;;;;;;;;;;;;4958428;29;20005;-79
2021/10/14 14:47:07;;;;;;;;;;;;;;;;;;4958510;29;19966;-82
2021/10/14 14:49:33;;;;;;;;;;;;;;;;;;4958471;29;19974;-80
2021/10/14 14:51:59;;;;;;;;;;;;;;;;;;4958295;29;20422;-82
2021/10/14 14:54:25;;;;;;;;;;;;;;;;;;4958383;29;20017;-81
2021/10/14 14:56:50;;;;;;;;;;;;;;;;;;4941277;29;20010;-85
2021/10/14 14:59:16;;;;;;;;;;;;;;;;;;4958460;29;19958;-83
2021/10/14 15:01:41;;;;;;;;;;;;;;;;;;4958319;29;19978;-79
2021/10/14 15:04:08;;;;;;;;;;;;;;;;;;4958121;29;19969;-84
2021/10/14 15:06:33;;;;;;;;;;;;;;;;;;4958474;29;20322;-78
2021/10/14 15:08:59;;;;;;;;;;;;;;;;;;4972772;28;19921;-80
2021/10/14 15:11:24;;;;;;;;;;;;;;;;;;4978729;28;19922;-79
2021/10/14 15:13:51;;;;;;;;;;;;;;;;;;4977291;28;19961;-81
2021/10/14 15:16:17;;;;;;;;;;;;;;;;;;4977128;28;19921;-79
2021/10/14 15:18:42;;;;;;;;;;;;;;;;;;4977534;28;19922;-82
2021/10/14 15:21:08;;;;;;;;;;;;;;;;;;4977351;28;20325;-84
2021/10/14 15:23:34;;;;;;;;;;;;;;;;;;4976035;28;19918;-79
2021/10/14 15:25:59;;;;;;;;;;;;;;;;;;4959676;28;20393;-80
2021/10/14 15:28:25;;;;;;;;;;;;;;;;;;4977199;28;19914;-80
2021/10/14 15:30:50;;;;;;;;;;;;;;;;;;4977043;28;19919;-79
2021/10/14 15:33:16;;;;;;;;;;;;;;;;;;4959411;28;19918;-81
2021/10/14 15:35:41;;;;;;;;;;;;;;;;;;4976755;28;19929;-79
2021/10/14 15:38:08;;;;;;;;;;;;;;;;;;4977063;28;20012;-78
2021/10/14 15:40:34;;;;;;;;;;;;;;;;;;4976807;28;19918;-79
2021/10/14 15:42:59;;;;;;;;;;;;;;;;;;4976808;28;19925;-79
2021/10/14 15:45:25;;;;;;;;;;;;;;;;;;4976576;28;19918;-79
2021/10/14 15:47:50;;;;;;;;;;;;;;;;;;4959178;28;19918;-79
2021/10/14 15:50:16;;;;;;;;;;;;;;;;;;4976539;28;19965;-78
2021/10/14 15:52:42;;;;;;;;;;;;;;;;;;4959248;28;19922;-79
2021/10/14 15:55:08;;;;;;;;;;;;;;;;;;4976652;28;19925;-79
2021/10/14 15:57:33;;;;;;;;;;;;;;;;;;4959137;28;20008;-82
2021/10/14 16:00:00;;;;;;;;;;;;;;;;;;4976269;28;19982;-78
2021/10/14 16:02:26;;;;;;;;;;;;;;;;;;4976265;28;19929;-83
2021/10/14 16:04:51;;;;;;;;;;;;;;;;;;4976397;28;19922;-81
2021/10/14 16:07:17;;;;;;;;;;;;;;;;;;4967204;28;19950;-81
2021/10/14 16:09:42;;;;;;;;;;;;;;;;;;4956804;28;19926;-80
2021/10/14 16:12:07;;;;;;;;;;;;;;;;;;4956882;29;19941;-85
2021/10/14 16:14:33;;;;;;;;;;;;;;;;;;4956832;28;20389;-79
2021/10/14 16:16:59;;;;;;;;;;;;;;;;;;4956821;28;19922;-83
2021/10/14 16:19:25;;;;;;;;;;;;;;;;;;4956681;29;19918;-80
2021/10/14 16:21:50;;;;;;;;;;;;;;;;;;4939571;29;19922;-80
2021/10/14 16:24:19;;;;;;;;;;;;;;;;;;4956637;29;19918;-79
2021/10/14 16:26:45;;;;;;;;;;;;;;;;;;4956558;28;19962;-85
2021/10/14 16:29:11;;;;;;;;;;;;;;;;;;4956513;28;19923;-83
2021/10/14 16:31:36;;;;;;;;;;;;;;;;;;4956471;28;19922;-79
2021/10/14 16:36:36;;;;;;;;;;;;;;;;;;4956489;29;20274;-81
2021/10/14 16:39:03;;;;;;;;;;;;;;;;;;4956440;28;19927;-80
2021/10/14 16:41:29;;;;;;;;;;;;;;;;;;4956340;29;20355;-79
2021/10/14 16:43:54;;;;;;;;;;;;;;;;;;4956376;29;19918;-78
2021/10/14 16:46:20;;;;;;;;;;;;;;;;;;4939227;29;19925;-79
2021/10/14 16:48:45;;;;;;;;;;;;;;;;;;4956179;29;19915;-80
2021/10/14 16:51:11;;;;;;;;;;;;;;;;;;4956323;29;19926;-81
2021/10/14 16:53:36;;;;;;;;;;;;;;;;;;4956244;29;19918;-79
2021/10/14 16:56:02;;;;;;;;;;;;;;;;;;4956395;29;20017;-81